createdAt,value
2022-12-08T00:05:55.947Z,4.07
2022-12-08T00:11:37.263Z,5.03
2022-12-08T00:14:24.594Z,5.65
2022-12-08T00:17:08.840Z,5.07
2022-12-08T00:19:43.691Z,4.53
2022-12-08T00:22:14.732Z,4.38
2022-12-08T00:24:53.755Z,5.10
2022-12-08T00:27:49.694Z,4.53
2022-12-08T00:30:26.007Z,4.50
2022-12-08T00:32:53.870Z,3.90
2022-12-08T00:35:44.768Z,4.00
2022-12-08T00:38:13.719Z,3.38
2022-12-08T00:40:52.079Z,4.03
2022-12-08T00:43:30.163Z,3.97
2022-12-08T00:46:04.506Z,3.85
2022-12-08T00:48:42.662Z,3.70
2022-12-08T00:51:12.634Z,2.83
2022-12-08T00:53:42.457Z,2.95
2022-12-08T00:56:47.701Z,3.80
2022-12-08T00:59:39.298Z,3.53
2022-12-08T01:02:25.073Z,4.60
2022-12-08T01:04:53.065Z,4.57
2022-12-08T01:07:20.917Z,4.25
2022-12-08T01:13:40.511Z,4.38
2022-12-08T01:16:09.003Z,4.55
2022-12-08T01:19:01.690Z,4.97
2022-12-08T01:21:34.244Z,3.67
2022-12-08T01:24:02.796Z,3.10
2022-12-08T01:26:37.530Z,3.22
2022-12-08T01:29:11.741Z,2.97
2022-12-08T01:31:46.671Z,3.72
2022-12-08T01:34:14.768Z,2.97
2022-12-08T01:36:49.753Z,3.25
2022-12-08T01:39:26.773Z,3.58
2022-12-08T01:42:04.008Z,3.00
2022-12-08T01:44:31.773Z,3.20
2022-12-08T01:47:12.566Z,3.97
2022-12-08T01:49:40.603Z,3.38
2022-12-08T01:52:28.898Z,2.95
2022-12-08T01:55:01.073Z,2.90
2022-12-08T01:57:50.757Z,3.50
2022-12-08T02:00:26.063Z,3.03
2022-12-08T02:03:27.039Z,3.38
2022-12-08T02:06:06.466Z,3.92
2022-12-08T02:08:47.165Z,3.20
2022-12-08T02:11:15.319Z,2.88
2022-12-08T02:13:51.838Z,3.25
2022-12-08T02:16:44.673Z,3.38
2022-12-08T02:19:38.546Z,3.78
2022-12-08T02:22:40.239Z,3.70
2022-12-08T02:28:10.288Z,2.72
2022-12-08T02:30:57.157Z,3.33
2022-12-08T02:33:53.632Z,3.05
2022-12-08T02:36:50.429Z,2.40
2022-12-08T02:39:47.269Z,2.90
2022-12-08T02:42:37.903Z,3.03
2022-12-08T02:45:11.036Z,3.42
2022-12-08T02:47:40.132Z,3.80
2022-12-08T02:50:08.705Z,3.85
2022-12-08T02:52:56.882Z,3.78
2022-12-08T02:55:57.818Z,3.72
2022-12-08T03:01:41.842Z,4.30
2022-12-08T03:04:50.622Z,3.78
2022-12-08T03:07:29.341Z,5.10
2022-12-08T03:10:27.612Z,4.40
2022-12-08T03:13:17.340Z,5.63
2022-12-08T03:15:48.038Z,6.05
2022-12-08T03:18:17.278Z,5.18
2022-12-08T03:21:12.874Z,6.20
2022-12-08T03:24:07.900Z,5.90
2022-12-08T03:27:13.392Z,4.90
2022-12-08T03:29:59.813Z,5.38
2022-12-08T03:32:49.258Z,5.60
2022-12-08T03:35:25.326Z,5.80
2022-12-08T03:38:06.886Z,5.47
2022-12-08T03:43:33.240Z,6.40
2022-12-08T03:46:01.279Z,6.25
2022-12-08T03:48:32.511Z,7.18
2022-12-08T03:51:03.469Z,4.80
2022-12-08T03:56:56.140Z,4.80
2022-12-08T03:59:27.717Z,5.57
2022-12-08T04:02:11.686Z,5.68
2022-12-08T04:04:42.816Z,4.35
2022-12-08T04:07:29.740Z,4.55
2022-12-08T04:10:23.283Z,4.20
2022-12-08T04:12:52.981Z,4.22
2022-12-08T04:15:35.075Z,4.20
2022-12-08T04:18:38.366Z,4.43
2022-12-08T04:21:18.563Z,3.65
2022-12-08T04:24:18.404Z,4.05
2022-12-08T04:26:51.251Z,4.53
2022-12-08T04:29:27.158Z,4.25
2022-12-08T04:32:05.405Z,4.75
2022-12-08T04:35:00.390Z,4.20
2022-12-08T04:37:32.378Z,4.35
2022-12-08T04:40:02.817Z,3.92
2022-12-08T04:42:33.030Z,4.22
2022-12-08T04:45:11.433Z,4.22
2022-12-08T04:47:48.814Z,3.85
2022-12-08T04:50:16.722Z,4.10
2022-12-08T04:52:53.509Z,4.03
2022-12-08T04:55:27.569Z,4.28
2022-12-08T04:58:09.036Z,4.10
2022-12-08T05:00:39.049Z,4.30
2022-12-08T05:03:09.787Z,4.75
2022-12-08T05:05:42.575Z,4.43
2022-12-08T05:11:28.829Z,4.32
2022-12-08T05:13:57.813Z,4.93
2022-12-08T05:17:09.747Z,4.82
2022-12-08T05:19:45.291Z,4.45
2022-12-08T05:22:28.620Z,4.78
2022-12-08T05:24:56.623Z,4.40
2022-12-08T05:27:46.566Z,5.28
2022-12-08T05:30:20.674Z,5.53
2022-12-08T05:32:48.640Z,4.40
2022-12-08T05:35:49.104Z,4.20
2022-12-08T05:38:17.926Z,4.63
2022-12-08T05:40:50.924Z,4.93
2022-12-08T05:43:24.007Z,4.93
2022-12-08T05:45:59.064Z,5.10
2022-12-08T05:48:37.253Z,4.85
2022-12-08T05:51:19.204Z,4.65
2022-12-08T05:53:55.966Z,4.68
2022-12-08T05:56:47.805Z,5.35
2022-12-08T05:59:24.200Z,4.88
2022-12-08T06:01:53.311Z,4.68
2022-12-08T06:04:22.577Z,4.47
2022-12-08T06:06:52.673Z,4.70
2022-12-08T06:09:28.068Z,3.92
2022-12-08T06:12:02.511Z,4.85
2022-12-08T06:14:39.841Z,5.50
2022-12-08T06:17:12.936Z,4.60
2022-12-08T06:19:44.844Z,3.63
2022-12-08T06:22:19.946Z,5.40
2022-12-08T06:25:10.101Z,4.05
2022-12-08T06:27:55.628Z,4.57
2022-12-08T06:30:36.924Z,4.50
2022-12-08T06:33:12.246Z,4.60
2022-12-08T06:35:45.358Z,4.20
2022-12-08T06:38:15.436Z,4.22
2022-12-08T06:41:02.868Z,5.25
2022-12-08T06:43:55.627Z,5.00
2022-12-08T06:46:24.662Z,5.03
2022-12-08T06:48:54.718Z,5.78
2022-12-08T06:51:34.709Z,4.60
2022-12-08T06:54:14.764Z,4.45
2022-12-08T06:56:42.743Z,4.72
2022-12-08T06:59:19.016Z,5.05
2022-12-08T07:01:50.368Z,5.00
2022-12-08T07:07:17.565Z,5.47
2022-12-08T07:09:48.769Z,5.43
2022-12-08T07:12:24.203Z,5.90
2022-12-08T07:14:53.965Z,6.03
2022-12-08T07:17:47.949Z,6.18
2022-12-08T07:20:21.204Z,5.78
2022-12-08T07:23:26.911Z,6.95
2022-12-08T07:26:03.951Z,6.47
2022-12-08T07:28:38.248Z,7.10
2022-12-08T07:31:08.576Z,6.82
2022-12-08T07:33:44.749Z,6.32
2022-12-08T07:36:20.789Z,6.75
2022-12-08T07:38:53.081Z,6.95
2022-12-08T07:41:29.065Z,6.68
2022-12-08T07:44:00.907Z,6.28
2022-12-08T07:46:37.029Z,5.82
2022-12-08T07:49:07.782Z,6.25
2022-12-08T07:51:35.760Z,6.00
2022-12-08T07:54:14.314Z,5.90
2022-12-08T07:56:44.824Z,7.07
2022-12-08T07:59:23.027Z,7.10
2022-12-08T08:02:13.447Z,6.57
2022-12-08T08:04:55.732Z,8.07
2022-12-08T08:07:25.870Z,7.47
2022-12-08T08:26:07.737Z,6.95
2022-12-08T08:44:16.711Z,4.85
2022-12-08T08:53:02.371Z,4.88
2022-12-08T09:23:51.616Z,5.32
2022-12-08T09:26:19.454Z,4.85
2022-12-08T09:28:51.604Z,4.57
2022-12-08T09:31:20.880Z,5.50
2022-12-08T09:34:08.859Z,5.55
2022-12-08T09:36:42.800Z,5.13
2022-12-08T09:39:17.165Z,5.63
2022-12-08T09:42:04.416Z,5.20
2022-12-08T09:45:02.997Z,5.15
2022-12-08T09:48:00.811Z,5.38
2022-12-08T09:50:42.337Z,4.82
2022-12-08T09:56:08.293Z,5.18
2022-12-08T15:42:28.290Z,9.48
2022-12-08T16:00:56.138Z,10.65
2022-12-08T16:09:42.208Z,8.85
2022-12-08T16:15:53.500Z,9.68
2022-12-08T16:18:42.772Z,10.43
2022-12-08T16:21:31.701Z,10.85
2022-12-08T16:24:09.050Z,10.10
2022-12-08T16:27:51.167Z,10.80
2022-12-08T16:29:34.485Z,10.07
2022-12-08T16:32:06.585Z,9.45
2022-12-08T16:34:36.307Z,10.45
2022-12-08T16:37:06.112Z,11.20
2022-12-08T16:39:56.831Z,10.43
2022-12-08T16:42:47.800Z,10.23
2022-12-08T16:45:19.866Z,14.35
2022-12-08T16:48:08.205Z,10.38
2022-12-08T16:50:39.160Z,10.50
2022-12-08T16:53:10.537Z,10.25
2022-12-08T16:55:53.748Z,10.65
2022-12-08T16:58:28.000Z,14.40
2022-12-08T17:01:17.615Z,13.82
2022-12-08T17:04:07.044Z,14.13
2022-12-08T17:06:35.027Z,12.20
2022-12-08T17:09:05.017Z,15.05
2022-12-08T17:12:01.848Z,29.35
2022-12-08T17:14:36.582Z,16.75
2022-12-08T17:17:08.194Z,15.30
2022-12-08T17:19:41.026Z,14.52
2022-12-08T17:22:15.993Z,14.90
2022-12-08T17:25:26.209Z,11.98
2022-12-08T17:28:03.333Z,11.45
2022-12-08T17:30:34.111Z,11.30
2022-12-08T17:33:01.984Z,18.98
2022-12-08T17:35:29.959Z,14.48
2022-12-08T17:37:58.126Z,14.95
2022-12-08T17:40:29.860Z,16.35
2022-12-08T17:43:01.840Z,15.23
2022-12-08T17:45:29.964Z,15.77
2022-12-08T17:48:06.172Z,16.88
2022-12-08T17:50:39.653Z,16.67
2022-12-08T17:53:09.253Z,14.18
2022-12-08T17:56:07.409Z,14.82
2022-12-08T17:58:39.787Z,12.68
2022-12-08T18:01:12.380Z,14.05
2022-12-08T18:03:45.607Z,14.85
2022-12-08T18:09:32.442Z,13.52
2022-12-08T18:12:03.717Z,14.13
2022-12-08T18:14:39.443Z,59.78
2022-12-08T18:17:08.873Z,24.42
2022-12-08T18:19:44.697Z,20.42
2022-12-08T18:22:14.684Z,20.92
2022-12-08T18:24:42.903Z,22.55
2022-12-08T18:27:11.428Z,24.42
2022-12-08T18:29:40.868Z,24.58
2022-12-08T18:32:18.029Z,23.00
2022-12-08T18:34:48.743Z,21.25
2022-12-08T18:37:17.199Z,22.52
2022-12-08T18:39:54.753Z,25.45
2022-12-08T18:42:25.415Z,29.60
2022-12-08T18:45:08.116Z,19.50
2022-12-08T18:47:40.149Z,17.45
2022-12-08T18:50:11.312Z,32.10
2022-12-08T18:52:39.281Z,29.55
2022-12-08T18:55:10.895Z,15.27
2022-12-08T18:57:46.423Z,16.67
2022-12-08T19:00:18.371Z,15.30
2022-12-08T19:02:48.762Z,17.17
2022-12-08T19:05:17.121Z,18.00
2022-12-08T19:07:48.100Z,17.05
2022-12-08T19:10:18.463Z,16.77
2022-12-08T19:12:49.867Z,18.92
2022-12-08T19:17:49.604Z,17.20
2022-12-08T19:20:25.495Z,16.92
2022-12-08T19:23:04.903Z,11.60
2022-12-08T19:25:45.046Z,11.63
2022-12-08T19:28:30.849Z,12.40
2022-12-08T19:31:43.598Z,13.52
2022-12-08T19:34:17.415Z,17.75
2022-12-08T19:36:51.907Z,15.77
2022-12-08T19:39:48.844Z,14.18
2022-12-08T19:42:46.507Z,14.73
2022-12-08T19:45:31.042Z,15.05
2022-12-08T19:48:18.994Z,16.85
2022-12-08T19:54:01.075Z,19.58
2022-12-08T19:56:44.300Z,17.92
2022-12-08T19:59:37.970Z,19.48
2022-12-08T20:02:31.819Z,18.23
2022-12-08T20:05:29.337Z,17.95
2022-12-08T20:08:02.532Z,18.08
2022-12-08T20:11:03.155Z,22.23
2022-12-08T20:13:49.732Z,25.67
2022-12-08T20:16:59.731Z,20.48
2022-12-08T20:19:53.229Z,18.00
2022-12-08T20:22:40.531Z,18.25
2022-12-08T20:25:13.191Z,18.27
2022-12-08T20:28:07.285Z,16.48
2022-12-08T20:31:14.940Z,17.85
2022-12-08T20:34:35.710Z,18.20
2022-12-08T20:37:29.172Z,17.30
2022-12-08T20:41:53.107Z,16.92
2022-12-08T22:16:15.947Z,12.52
2022-12-08T22:48:02.881Z,12.13
2022-12-08T23:32:39.316Z,10.93
